createdAt,value
2022-12-22T00:01:37.117Z,102023.81
2022-12-22T00:06:58.906Z,102009.56
2022-12-22T00:12:26.386Z,102017.53
2022-12-22T00:17:51.982Z,102012.31
2022-12-22T00:23:17.625Z,102018.28
2022-12-22T00:28:45.998Z,102001.53
2022-12-22T00:34:10.690Z,102010.25
2022-12-22T00:39:33.034Z,102024.69
2022-12-22T00:44:56.344Z,102026.84
2022-12-22T00:50:22.273Z,102039.13
2022-12-22T00:55:50.803Z,102042.34
2022-12-22T01:01:14.594Z,102051.06
2022-12-22T01:06:39.656Z,102055.94
2022-12-22T01:12:02.641Z,102060.00
2022-12-22T01:17:32.664Z,102040.03
2022-12-22T01:22:57.456Z,102048.75
2022-12-22T01:28:20.683Z,102056.03
2022-12-22T01:33:45.993Z,102066.66
2022-12-22T01:39:14.708Z,102072.13
2022-12-22T01:44:40.467Z,102087.94
2022-12-22T01:50:11.554Z,102082.38
2022-12-22T01:55:43.924Z,102083.22
2022-12-22T02:05:57.265Z,102056.13
2022-12-22T02:11:52.997Z,102048.75
2022-12-22T02:17:49.690Z,102058.03
2022-12-22T02:23:52.638Z,102056.63
2022-12-22T02:29:17.717Z,102053.06
2022-12-22T02:34:39.859Z,102050.91
2022-12-22T02:40:14.704Z,102065.66
2022-12-22T02:45:59.668Z,102046.25
2022-12-22T02:51:31.291Z,102058.03
2022-12-22T02:56:56.216Z,102091.66
2022-12-22T03:02:20.202Z,102084.53
2022-12-22T03:07:50.626Z,102065.28
2022-12-22T03:13:14.529Z,102072.31
2022-12-22T03:18:37.978Z,102069.59
2022-12-22T03:24:02.722Z,102055.34
2022-12-22T03:29:10.418Z,102076.38
2022-12-22T03:34:15.070Z,102073.06
2022-12-22T03:39:22.632Z,102062.38
2022-12-22T03:44:58.854Z,102067.25
2022-12-22T03:50:02.281Z,102072.00
2022-12-22T03:55:08.643Z,102068.38
2022-12-22T04:00:13.136Z,102074.31
2022-12-22T04:05:19.014Z,102086.56
2022-12-22T04:10:43.958Z,102084.91
2022-12-22T04:15:52.665Z,102084.91
2022-12-22T04:20:57.282Z,102091.69
2022-12-22T04:26:14.215Z,102092.78
2022-12-22T04:31:20.173Z,102093.00
2022-12-22T04:36:26.970Z,102082.56
2022-12-22T04:41:32.181Z,102096.47
2022-12-22T04:46:40.213Z,102090.66
2022-12-22T04:51:44.157Z,102077.50
2022-12-22T04:56:52.227Z,102090.00
2022-12-22T05:07:56.656Z,102099.63
2022-12-22T05:13:53.632Z,102086.47
2022-12-22T05:33:36.807Z,102131.81
2022-12-22T05:38:40.126Z,102123.16
2022-12-22T05:43:42.053Z,102118.28
2022-12-22T05:48:43.918Z,102129.19
2022-12-22T05:53:45.838Z,102130.63
2022-12-22T05:58:50.472Z,102125.75
2022-12-22T06:04:00.047Z,102135.84
2022-12-22T06:09:03.381Z,102141.78
2022-12-22T06:14:08.816Z,102149.38
2022-12-22T06:19:10.683Z,102136.22
2022-12-22T06:24:12.540Z,102143.81
2022-12-22T06:29:14.424Z,102155.47
2022-12-22T06:34:19.043Z,102147.16
2022-12-22T06:39:21.765Z,102150.38
2022-12-22T06:44:23.635Z,102135.91
2022-12-22T06:49:26.091Z,102147.31
2022-12-22T06:54:29.004Z,102150.50
2022-12-22T06:59:30.938Z,102144.47
2022-12-22T07:04:32.831Z,102143.03
2022-12-22T07:09:36.866Z,102159.91
2022-12-22T07:14:38.692Z,102173.19
2022-12-22T07:19:40.599Z,102173.66
2022-12-22T07:24:46.107Z,102182.94
2022-12-22T07:29:47.962Z,102187.31
2022-12-22T07:34:56.847Z,102181.97
2022-12-22T07:40:01.981Z,102195.75
2022-12-22T07:45:04.598Z,102201.91
2022-12-22T07:50:27.860Z,102204.28
2022-12-22T07:55:32.329Z,102215.91
2022-12-22T08:00:34.235Z,102229.91
2022-12-22T08:05:38.303Z,102231.63
2022-12-22T08:10:40.171Z,102234.91
2022-12-22T08:15:42.190Z,102230.72
2022-12-22T08:20:50.506Z,102213.78
2022-12-22T08:25:59.535Z,102227.00
2022-12-22T08:31:02.499Z,102221.19
2022-12-22T08:36:08.479Z,102221.88
2022-12-22T08:41:14.927Z,102213.88
2022-12-22T08:46:16.924Z,102216.75
2022-12-22T08:51:21.699Z,102215.31
2022-12-22T08:56:23.652Z,102215.13
2022-12-22T09:01:35.771Z,102216.19
2022-12-22T09:06:41.216Z,102205.19
2022-12-22T09:11:44.738Z,102220.50
2022-12-22T09:16:46.733Z,102225.13
2022-12-22T09:21:48.985Z,102223.44
2022-12-22T09:26:50.856Z,102223.59
2022-12-22T09:31:52.736Z,102225.09
2022-12-22T09:36:54.733Z,102231.22
2022-12-22T09:41:57.944Z,102238.44
2022-12-22T09:47:02.878Z,102242.25
2022-12-22T09:52:05.348Z,102228.75
2022-12-22T09:57:12.653Z,102231.56
2022-12-22T10:02:23.707Z,102234.34
2022-12-22T10:07:35.854Z,102222.19
2022-12-22T10:12:37.801Z,102220.00
2022-12-22T10:17:42.262Z,102203.44
2022-12-22T10:22:54.602Z,102213.53
2022-12-22T10:27:59.734Z,102220.84
2022-12-22T10:33:06.741Z,102217.31
2022-12-22T10:38:21.783Z,102203.31
2022-12-22T10:43:31.305Z,102195.75
2022-12-22T10:48:39.290Z,102174.72
2022-12-22T10:54:07.532Z,102197.72
2022-12-22T10:59:24.025Z,102180.28
2022-12-22T11:04:30.818Z,102189.00
2022-12-22T11:09:34.579Z,102182.53
2022-12-22T11:15:16.043Z,102161.22
2022-12-22T11:20:20.838Z,102159.03
2022-12-22T11:25:31.068Z,102139.41
2022-12-22T11:31:01.169Z,102126.72
2022-12-22T11:36:06.169Z,102134.03
2022-12-22T11:41:42.998Z,102131.59
2022-12-22T11:47:13.976Z,102132.94
2022-12-22T11:52:52.038Z,102131.28
2022-12-22T11:58:21.987Z,102121.84
2022-12-22T12:03:33.236Z,102116.25
2022-12-22T12:08:58.959Z,102095.81
2022-12-22T12:14:34.627Z,102097.25
2022-12-22T12:20:23.822Z,102094.56
2022-12-22T12:26:05.847Z,102083.34
2022-12-22T12:31:20.164Z,102086.94
2022-12-22T12:36:34.747Z,102077.91
2022-12-22T12:42:12.468Z,102059.81
2022-12-22T12:47:38.821Z,102056.22
2022-12-22T12:52:45.312Z,102047.88
2022-12-22T12:57:52.543Z,102037.63
2022-12-22T13:03:25.040Z,102023.47
2022-12-22T13:09:48.654Z,102007.44
2022-12-22T13:18:35.222Z,102000.22
2022-12-22T13:24:24.885Z,101992.59
2022-12-22T13:29:54.612Z,101983.56
2022-12-22T13:35:37.382Z,101967.41
2022-12-22T13:40:48.149Z,101958.00
2022-12-22T13:45:58.404Z,101969.16
2022-12-22T13:51:24.841Z,101968.66
2022-12-22T13:56:50.926Z,101962.56
2022-12-22T14:02:16.233Z,101971.47
2022-12-22T14:07:26.629Z,101962.22
2022-12-22T14:12:47.317Z,101953.00
2022-12-22T14:17:53.187Z,101952.81
2022-12-22T14:23:20.618Z,101941.63
2022-12-22T14:28:42.059Z,101963.66
2022-12-22T14:34:17.270Z,101967.22
2022-12-22T14:39:31.030Z,101967.94
2022-12-22T14:44:47.790Z,101980.28
2022-12-22T14:50:02.575Z,101978.25
2022-12-22T14:55:10.086Z,102001.91
2022-12-22T15:00:32.266Z,101993.16
2022-12-22T15:05:46.888Z,101991.69
2022-12-22T15:18:31.443Z,101957.81
2022-12-22T15:23:53.064Z,101945.09
2022-12-22T15:28:58.039Z,101940.66
2022-12-22T15:34:07.929Z,101947.34
2022-12-22T15:39:18.816Z,101952.88
2022-12-22T15:44:23.480Z,101980.56
2022-12-22T15:49:30.821Z,101992.84
2022-12-22T15:54:37.913Z,102012.88
2022-12-22T15:59:48.899Z,102000.59
2022-12-22T16:05:24.691Z,101979.50
2022-12-22T16:18:35.366Z,101981.38
2022-12-22T16:25:22.003Z,102006.06
2022-12-22T16:30:26.372Z,101999.78
2022-12-22T16:35:30.490Z,102002.34
2022-12-22T16:40:43.248Z,102016.75
2022-12-22T16:45:51.899Z,102013.22
2022-12-22T16:50:56.965Z,102020.44
2022-12-22T16:56:01.909Z,102013.56
2022-12-22T17:01:03.798Z,102015.50
2022-12-22T17:06:05.938Z,102013.88
2022-12-22T17:11:34.601Z,102011.97
2022-12-22T17:18:42.373Z,102023.00
2022-12-22T17:23:48.676Z,102033.50
2022-12-22T17:28:52.232Z,102033.78
2022-12-22T17:34:03.572Z,102036.84
2022-12-22T17:39:13.987Z,102044.28
2022-12-22T17:44:24.585Z,102045.41
2022-12-22T17:49:27.492Z,102046.78
2022-12-22T17:54:33.056Z,102048.44
2022-12-22T17:59:34.934Z,102037.69
2022-12-22T18:04:36.812Z,102049.78
2022-12-22T18:09:38.570Z,102042.66
2022-12-22T18:14:43.686Z,102036.06
2022-12-22T18:21:35.051Z,102040.47
2022-12-22T18:30:27.364Z,102049.25
2022-12-22T18:35:29.380Z,102055.31
2022-12-22T18:40:32.372Z,102050.34
2022-12-22T18:45:34.225Z,102054.75
2022-12-22T18:50:36.183Z,102047.88
2022-12-22T18:55:40.426Z,102042.66
2022-12-22T19:00:43.358Z,102041.81
2022-12-22T19:05:45.647Z,102036.56
2022-12-22T19:16:27.506Z,102023.09
2022-12-22T19:21:42.241Z,102037.66
2022-12-22T19:26:58.539Z,102041.22
2022-12-22T19:32:07.581Z,102049.16
2022-12-22T19:37:13.566Z,102049.69
2022-12-22T19:42:28.352Z,102048.03
2022-12-22T19:47:45.284Z,102049.13
2022-12-22T19:52:51.121Z,102048.53
2022-12-22T19:57:56.867Z,102048.50
2022-12-22T20:03:02.769Z,102042.47
2022-12-22T20:08:23.902Z,102031.75
2022-12-22T20:18:33.495Z,102025.69
2022-12-22T20:23:37.732Z,102026.22
2022-12-22T20:28:40.033Z,102017.16
2022-12-22T20:33:42.592Z,102024.84
2022-12-22T20:38:45.420Z,102030.31
2022-12-22T20:43:48.482Z,102013.00
2022-12-22T20:49:00.880Z,102015.75
2022-12-22T20:54:03.052Z,102022.06
2022-12-22T20:59:18.707Z,102023.16
2022-12-22T21:04:21.594Z,102020.97
2022-12-22T21:09:24.564Z,102019.06
2022-12-22T21:14:27.751Z,102006.19
2022-12-22T21:19:35.612Z,102003.44
2022-12-22T21:24:42.776Z,102000.13
2022-12-22T21:29:48.714Z,101992.72
2022-12-22T21:34:56.172Z,101984.19
2022-12-22T21:40:01.732Z,101987.19
2022-12-22T21:45:19.611Z,101986.38
2022-12-22T21:50:34.588Z,101969.63
2022-12-22T21:55:45.878Z,101978.69
2022-12-22T22:00:55.378Z,101980.31
2022-12-22T22:06:01.825Z,101976.75
2022-12-22T22:11:14.438Z,101970.41
2022-12-22T22:18:25.849Z,101981.38
2022-12-22T22:23:27.863Z,101984.66
2022-12-22T22:28:30.002Z,101981.88
2022-12-22T22:33:31.987Z,101988.97
2022-12-22T22:38:34.104Z,101993.06
2022-12-22T22:43:35.972Z,101985.66
2022-12-22T22:48:38.444Z,101969.16
2022-12-22T22:53:43.609Z,101958.19
2022-12-22T22:58:45.874Z,101962.31
2022-12-22T23:03:48.154Z,101979.34
2022-12-22T23:08:50.463Z,101980.19
2022-12-22T23:13:54.816Z,101970.84
2022-12-22T23:18:58.886Z,101981.81
2022-12-22T23:24:26.337Z,101979.09
2022-12-22T23:29:34.304Z,101968.94
2022-12-22T23:34:40.562Z,101972.50
2022-12-22T23:45:11.616Z,101970.84
2022-12-22T23:50:16.646Z,101977.97
2022-12-22T23:55:30.145Z,101962.84
